Home > Products > Valid Products > TAF

000
FTUS44 KHUN 121823 AAA
TAFMSL
TAF AMD
KMSL 121823Z 1218/1318 29016G22KT P6SM SKC
     FM122200 33010G16KT P6SM SCT050
     FM130100 34012G18KT P6SM BKN035
     FM131500 01009G15KT P6SM SCT035=



000
FTUS44 KHUN 121823 AAA
TAFMSL
TAF AMD
KMSL 121823Z 1218/1318 29016G22KT P6SM SKC
     FM122200 33010G16KT P6SM SCT050
     FM130100 34012G18KT P6SM BKN035
     FM131500 01009G15KT P6SM SCT035=



000
FTUS44 KHUN 121823 AAA
TAFMSL
TAF AMD
KMSL 121823Z 1218/1318 29016G22KT P6SM SKC
     FM122200 33010G16KT P6SM SCT050
     FM130100 34012G18KT P6SM BKN035
     FM131500 01009G15KT P6SM SCT035=



000
FTUS44 KHUN 121822 AAA
TAFHSV
TAF AMD
KHSV 121822Z 1218/1318 30013G21KT P6SM FEW070
     FM122200 33010G16KT P6SM SCT050
     FM130100 34012G18KT P6SM BKN035
     FM131500 36009G15KT P6SM SCT035=



000
FTUS44 KHUN 121822 AAA
TAFHSV
TAF AMD
KHSV 121822Z 1218/1318 30013G21KT P6SM FEW070
     FM122200 33010G16KT P6SM SCT050
     FM130100 34012G18KT P6SM BKN035
     FM131500 36009G15KT P6SM SCT035=



000
FTUS44 KHUN 121822 AAA
TAFHSV
TAF AMD
KHSV 121822Z 1218/1318 30013G21KT P6SM FEW070
     FM122200 33010G16KT P6SM SCT050
     FM130100 34012G18KT P6SM BKN035
     FM131500 36009G15KT P6SM SCT035=



000
FTUS44 KHUN 121720
TAFMSL
TAF
KMSL 121720Z 1218/1318 33010G15KT P6SM FEW060
     FM122100 33010G16KT P6SM SCT050
     FM130100 34012G18KT P6SM BKN035
     FM131500 01009G15KT P6SM SCT035=



000
FTUS44 KHUN 121720
TAFHSV
TAF
KHSV 121720Z 1218/1318 30010G15KT P6SM FEW060
     FM122100 33010G16KT P6SM SCT050
     FM130100 34012G18KT P6SM BKN035
     FM131500 36009G15KT P6SM SCT035=



000
FTUS44 KHUN 121720
TAFHSV
TAF
KHSV 121720Z 1218/1318 30010G15KT P6SM FEW060
     FM122100 33010G16KT P6SM SCT050
     FM130100 34012G18KT P6SM BKN035
     FM131500 36009G15KT P6SM SCT035=



000
FTUS44 KHUN 121720
TAFMSL
TAF
KMSL 121720Z 1218/1318 33010G15KT P6SM FEW060
     FM122100 33010G16KT P6SM SCT050
     FM130100 34012G18KT P6SM BKN035
     FM131500 01009G15KT P6SM SCT035=



000
FTUS44 KHUN 121720
TAFHSV
TAF
KHSV 121720Z 1218/1318 30010G15KT P6SM FEW060
     FM122100 33010G16KT P6SM SCT050
     FM130100 34012G18KT P6SM BKN035
     FM131500 36009G15KT P6SM SCT035=



000
FTUS44 KHUN 121720
TAFMSL
TAF
KMSL 121720Z 1218/1318 33010G15KT P6SM FEW060
     FM122100 33010G16KT P6SM SCT050
     FM130100 34012G18KT P6SM BKN035
     FM131500 01009G15KT P6SM SCT035=



000
FTUS44 KHUN 121531 AAA
TAFMSL
TAF AMD
KMSL 121531Z 1216/1312 33003KT P6SM SKC
     FM121800 32010KT P6SM SCT050
     FM130000 34010KT P6SM BKN250=



000
FTUS44 KHUN 121530 AAA
TAFHSV
TAF AMD
KHSV 121530Z 1216/1312 00000KT P6SM SKC
     FM121800 31010KT P6SM SCT050
     FM130000 34010KT P6SM BKN250=



000
FTUS44 KHUN 121132
TAFMSL
TAF
KMSL 121132Z 1212/1312 00000KT P6SM SCT120
     FM121500 31010KT P6SM SCT120
     FM121800 32010KT P6SM SCT050
     FM130000 34010KT P6SM BKN250=



000
FTUS44 KHUN 121132
TAFHSV
TAF
KHSV 121132Z 1212/1312 00000KT P6SM BKN120
     FM121600 30010KT P6SM SCT120
     FM121800 31010KT P6SM SCT050
     FM130000 34010KT P6SM BKN250=



000
FTUS44 KHUN 121132
TAFHSV
TAF
KHSV 121132Z 1212/1312 00000KT P6SM BKN120
     FM121600 30010KT P6SM SCT120
     FM121800 31010KT P6SM SCT050
     FM130000 34010KT P6SM BKN250=



000
FTUS44 KHUN 121132
TAFMSL
TAF
KMSL 121132Z 1212/1312 00000KT P6SM SCT120
     FM121500 31010KT P6SM SCT120
     FM121800 32010KT P6SM SCT050
     FM130000 34010KT P6SM BKN250=



000
FTUS44 KHUN 121132
TAFMSL
TAF
KMSL 121132Z 1212/1312 00000KT P6SM SCT120
     FM121500 31010KT P6SM SCT120
     FM121800 32010KT P6SM SCT050
     FM130000 34010KT P6SM BKN250=



000
FTUS44 KHUN 121132
TAFHSV
TAF
KHSV 121132Z 1212/1312 00000KT P6SM BKN120
     FM121600 30010KT P6SM SCT120
     FM121800 31010KT P6SM SCT050
     FM130000 34010KT P6SM BKN250=



000
FTUS44 KHUN 120521
TAFMSL
TAF
KMSL 120521Z 1206/1306 VRB03KT P6SM BKN100
     FM121400 31009KT P6SM SCT035=



000
FTUS44 KHUN 120521
TAFHSV
TAF
KHSV 120521Z 1206/1306 06004KT P6SM BKN120
     FM121500 30010KT P6SM SCT040=



000
FTUS44 KHUN 120521
TAFHSV
TAF
KHSV 120521Z 1206/1306 06004KT P6SM BKN120
     FM121500 30010KT P6SM SCT040=



000
FTUS44 KHUN 120521
TAFMSL
TAF
KMSL 120521Z 1206/1306 VRB03KT P6SM BKN100
     FM121400 31009KT P6SM SCT035=



000
FTUS44 KHUN 112334
TAFHSV
TAF
KHSV 112334Z 1200/1224 VRB04KT P6SM SCT250
     FM120500 VRB03KT P6SM BKN120
     FM121500 30010KT P6SM SCT040=



000
FTUS44 KHUN 112334
TAFMSL
TAF
KMSL 112334Z 1200/1224 10004KT P6SM SKC
     FM120300 VRB03KT P6SM BKN100
     FM121400 31009KT P6SM SCT035=



000
FTUS44 KHUN 112334
TAFHSV
TAF
KHSV 112334Z 1200/1224 VRB04KT P6SM SCT250
     FM120500 VRB03KT P6SM BKN120
     FM121500 30010KT P6SM SCT040=



000
FTUS44 KHUN 112334
TAFMSL
TAF
KMSL 112334Z 1200/1224 10004KT P6SM SKC
     FM120300 VRB03KT P6SM BKN100
     FM121400 31009KT P6SM SCT035=



000
FTUS44 KHUN 112334
TAFHSV
TAF
KHSV 112334Z 1200/1224 VRB04KT P6SM SCT250
     FM120500 VRB03KT P6SM BKN120
     FM121500 30010KT P6SM SCT040=



000
FTUS44 KHUN 112334
TAFMSL
TAF
KMSL 112334Z 1200/1224 10004KT P6SM SKC
     FM120300 VRB03KT P6SM BKN100
     FM121400 31009KT P6SM SCT035=



000
FTUS44 KHUN 111720
TAFHSV
TAF
KHSV 111720Z 1118/1218 09006KT P6SM SKC
     FM120200 VRB03KT P6SM BKN120
     FM121600 32011KT P6SM SCT035=



000
FTUS44 KHUN 111720
TAFMSL
TAF
KMSL 111720Z 1118/1218 07008KT P6SM SKC
     FM120200 VRB03KT P6SM BKN120
     FM121600 30010KT P6SM SCT035=



000
FTUS44 KHUN 111720
TAFMSL
TAF
KMSL 111720Z 1118/1218 07008KT P6SM SKC
     FM120200 VRB03KT P6SM BKN120
     FM121600 30010KT P6SM SCT035=



000
FTUS44 KHUN 111720
TAFHSV
TAF
KHSV 111720Z 1118/1218 09006KT P6SM SKC
     FM120200 VRB03KT P6SM BKN120
     FM121600 32011KT P6SM SCT035=



000
FTUS44 KHUN 111120
TAFMSL
TAF
KMSL 111120Z 1112/1212 09010KT P6SM SKC
     FM111800 06010KT P6SM SCT250
     FM120200 VRB03KT P6SM BKN120=



000
FTUS44 KHUN 111120
TAFHSV
TAF
KHSV 111120Z 1112/1212 09010KT P6SM SKC
     FM111800 05010KT P6SM SCT250
     FM120200 VRB03KT P6SM BKN120=



000
FTUS44 KHUN 110520
TAFMSL
TAF
KMSL 110520Z 1106/1206 11004KT P6SM SKC
     FM111800 04006KT P6SM FEW035 SCT180 BKN250
     FM120200 VRB03KT P6SM BKN250=



000
FTUS44 KHUN 110520
TAFHSV
TAF
KHSV 110520Z 1106/1206 11004KT P6SM FEW060
     FM111800 04006KT P6SM FEW035 SCT180 BKN250
     FM120200 VRB03KT P6SM BKN250=



000
FTUS44 KHUN 110520
TAFMSL
TAF
KMSL 110520Z 1106/1206 11004KT P6SM SKC
     FM111800 04006KT P6SM FEW035 SCT180 BKN250
     FM120200 VRB03KT P6SM BKN250=



000
FTUS44 KHUN 110520
TAFHSV
TAF
KHSV 110520Z 1106/1206 11004KT P6SM FEW060
     FM111800 04006KT P6SM FEW035 SCT180 BKN250
     FM120200 VRB03KT P6SM BKN250=



000
FTUS44 KHUN 102339
TAFHSV
TAF
KHSV 102339Z 1100/1124 31004KT P6SM OVC080
     FM110300 VRB02KT P6SM SCT080
     FM110600 11004KT P6SM SCT040
     FM111800 04006KT P6SM FEW035 SCT180 BKN250=



000
FTUS44 KHUN 102339
TAFHSV
TAF
KHSV 102339Z 1100/1124 31004KT P6SM OVC080
     FM110300 VRB02KT P6SM SCT080
     FM110600 11004KT P6SM SCT040
     FM111800 04006KT P6SM FEW035 SCT180 BKN250=



000
FTUS44 KHUN 102339
TAFHSV
TAF
KHSV 102339Z 1100/1124 31004KT P6SM OVC080
     FM110300 VRB02KT P6SM SCT080
     FM110600 11004KT P6SM SCT040
     FM111800 04006KT P6SM FEW035 SCT180 BKN250=



000
FTUS44 KHUN 102339
TAFMSL
TAF
KMSL 102339Z 1100/1124 VRB02KT P6SM SCT080
     FM110300 11004KT P6SM SCT040
     FM111800 04006KT P6SM FEW035 SCT180 BKN250=



000
FTUS44 KHUN 102339
TAFMSL
TAF
KMSL 102339Z 1100/1124 VRB02KT P6SM SCT080
     FM110300 11004KT P6SM SCT040
     FM111800 04006KT P6SM FEW035 SCT180 BKN250=



000
FTUS44 KHUN 102339
TAFMSL
TAF
KMSL 102339Z 1100/1124 VRB02KT P6SM SCT080
     FM110300 11004KT P6SM SCT040
     FM111800 04006KT P6SM FEW035 SCT180 BKN250=



000
FTUS44 KHUN 101720
TAFHSV
TAF
KHSV 101720Z 1018/1118 28015G20KT P6SM FEW040
     FM102100 27010KT P6SM BKN080
     FM110100 VRB04KT P6SM SCT040 BKN060=



000
FTUS44 KHUN 101720
TAFMSL
TAF
KMSL 101720Z 1018/1118 28012G18KT P6SM SKC
     FM102000 27009KT P6SM BKN080
     FM110000 VRB03KT P6SM SCT040 BKN060=



000
FTUS44 KHUN 101258 AAA
TAFHSV
TAF AMD
KHSV 101258Z 1013/1112 30010KT P6SM SCT040
     FM101600 30010KT P6SM SKC
     FM110300 VRB03KT P6SM SCT040 BKN080=



000
FTUS44 KHUN 101258 AAA
TAFHSV
TAF AMD
KHSV 101258Z 1013/1112 30010KT P6SM SCT040
     FM101600 30010KT P6SM SKC
     FM110300 VRB03KT P6SM SCT040 BKN080=



000
FTUS44 KHUN 101258 AAA
TAFHSV
TAF AMD
KHSV 101258Z 1013/1112 30010KT P6SM SCT040
     FM101600 30010KT P6SM SKC
     FM110300 VRB03KT P6SM SCT040 BKN080=



000
FTUS44 KHUN 101128
TAFMSL
TAF
KMSL 101128Z 1012/1112 30009KT P6SM SCT040
     FM101700 28009KT P6SM SKC
     FM110100 VRB03KT P6SM BKN060=



000
FTUS44 KHUN 101128
TAFMSL
TAF
KMSL 101128Z 1012/1112 30009KT P6SM SCT040
     FM101700 28009KT P6SM SKC
     FM110100 VRB03KT P6SM BKN060=



000
FTUS44 KHUN 101128
TAFHSV
TAF
KHSV 101128Z 1012/1112 30010KT P6SM BKN040
     FM101700 29010KT P6SM SCT040
     FM110300 VRB03KT P6SM SCT040 BKN080=



000
FTUS44 KHUN 101128
TAFHSV
TAF
KHSV 101128Z 1012/1112 30010KT P6SM BKN040
     FM101700 29010KT P6SM SCT040
     FM110300 VRB03KT P6SM SCT040 BKN080=



000
FTUS44 KHUN 101128
TAFMSL
TAF
KMSL 101128Z 1012/1112 30009KT P6SM SCT040
     FM101700 28009KT P6SM SKC
     FM110100 VRB03KT P6SM BKN060=



000
FTUS44 KHUN 101128
TAFHSV
TAF
KHSV 101128Z 1012/1112 30010KT P6SM BKN040
     FM101700 29010KT P6SM SCT040
     FM110300 VRB03KT P6SM SCT040 BKN080=



000
FTUS44 KHUN 100520
TAFHSV
TAF
KHSV 100520Z 1006/1106 31008KT P6SM SCT035
     FM101400 31012KT P6SM SCT250
     FM102100 27006KT P6SM SCT080 BKN150
     FM110300 VRB03KT P6SM SCT060 BKN100=



000
FTUS44 KHUN 100520
TAFMSL
TAF
KMSL 100520Z 1006/1106 31008KT P6SM SCT035
     FM101400 31012KT P6SM SCT250
     FM102100 27006KT P6SM SCT080 BKN150
     FM110300 VRB03KT P6SM BKN060 BKN100=



000
FTUS44 KHUN 092340
TAFMSL
TAF
KMSL 092340Z 1000/1024 31012G20KT P6SM SCT030 BKN050 OVC090
     FM100400 31008KT P6SM SCT035
     FM101400 31012KT P6SM SCT250
     FM102100 27006KT P6SM SCT080 BKN150=



000
FTUS44 KHUN 092340
TAFHSV
TAF
KHSV 092340Z 1000/1024 31012G20KT P6SM SCT030 BKN050 OVC090
      TEMPO 1000/1004 -SHSN BKN035
     FM100400 31008KT P6SM SCT035
     FM101400 31012KT P6SM SCT250
     FM102100 27006KT P6SM SCT080 BKN150=



    US Dept of Commerce
    National Oceanic and Atmospheric Administration
    National Weather Service
    1325 East West Highway
    Silver Spring, MD 20910
    Page Author: NWS Internet Services Team
Disclaimer
Information Quality
Credits
Glossary
Privacy Policy
Freedom of Information Act (FOIA)
About Us
Career Opportunities